sensor_id;sensor_type;location;lat;lon;timestamp;temperature;humidity
20911;DHT22;10615;42.702;23.314;2022-07-01T00:00:21;22.80;66.40
20911;DHT22;10615;42.702;23.314;2022-07-01T00:01:22;22.80;66.40
20911;DHT22;10615;42.702;23.314;2022-07-01T00:02:22;22.80;66.60
20911;DHT22;10615;42.702;23.314;2022-07-01T00:03:23;22.80;66.60
20911;DHT22;10615;42.702;23.314;2022-07-01T00:04:24;22.80;66.60
20911;DHT22;10615;42.702;23.314;2022-07-01T00:05:28;22.80;66.80
20911;DHT22;10615;42.702;23.314;2022-07-01T00:06:29;22.80;66.90
20911;DHT22;10615;42.702;23.314;2022-07-01T00:07:29;22.80;66.80
20911;DHT22;10615;42.702;23.314;2022-07-01T00:08:30;22.80;66.80
20911;DHT22;10615;42.702;23.314;2022-07-01T00:09:31;22.70;66.80
20911;DHT22;10615;42.702;23.314;2022-07-01T00:10:32;22.70;66.80
20911;DHT22;10615;42.702;23.314;2022-07-01T00:11:32;22.80;66.90
20911;DHT22;10615;42.702;23.314;2022-07-01T00:12:33;22.80;66.90
20911;DHT22;10615;42.702;23.314;2022-07-01T00:13:34;22.80;66.90
20911;DHT22;10615;42.702;23.314;2022-07-01T00:14:34;22.70;66.70
20911;DHT22;10615;42.702;23.314;2022-07-01T00:15:35;22.70;66.70
20911;DHT22;10615;42.702;23.314;2022-07-01T00:16:36;22.70;66.80
20911;DHT22;10615;42.702;23.314;2022-07-01T00:17:36;22.70;66.90
20911;DHT22;10615;42.702;23.314;2022-07-01T00:18:37;22.70;66.90
20911;DHT22;10615;42.702;23.314;2022-07-01T00:19:38;22.70;67.00
20911;DHT22;10615;42.702;23.314;2022-07-01T00:20:39;22.70;67.10
20911;DHT22;10615;42.702;23.314;2022-07-01T00:21:40;22.70;67.20
20911;DHT22;10615;42.702;23.314;2022-07-01T00:22:41;22.70;67.20
20911;DHT22;10615;42.702;23.314;2022-07-01T00:23:42;22.70;67.20
20911;DHT22;10615;42.702;23.314;2022-07-01T00:24:42;22.70;67.20
20911;DHT22;10615;42.702;23.314;2022-07-01T00:25:45;22.70;67.20
20911;DHT22;10615;42.702;23.314;2022-07-01T00:26:46;22.70;67.30
20911;DHT22;10615;42.702;23.314;2022-07-01T00:27:47;22.80;67.30
20911;DHT22;10615;42.702;23.314;2022-07-01T00:28:47;22.80;67.20
20911;DHT22;10615;42.702;23.314;2022-07-01T00:29:48;22.80;67.10
20911;DHT22;10615;42.702;23.314;2022-07-01T00:30:49;22.80;67.10
20911;DHT22;10615;42.702;23.314;2022-07-01T00:31:49;22.80;67.00
20911;DHT22;10615;42.702;23.314;2022-07-01T00:32:50;22.70;66.90
20911;DHT22;10615;42.702;23.314;2022-07-01T00:33:53;22.70;66.90
20911;DHT22;10615;42.702;23.314;2022-07-01T00:34:54;22.70;66.90
20911;DHT22;10615;42.702;23.314;2022-07-01T00:35:54;22.70;66.90
20911;DHT22;10615;42.702;23.314;2022-07-01T00:36:55;22.70;67.10
20911;DHT22;10615;42.702;23.314;2022-07-01T00:37:56;22.60;67.10
20911;DHT22;10615;42.702;23.314;2022-07-01T00:39:00;22.60;67.10
20911;DHT22;10615;42.702;23.314;2022-07-01T00:40:01;22.60;67.20
20911;DHT22;10615;42.702;23.314;2022-07-01T00:41:02;22.60;67.20
20911;DHT22;10615;42.702;23.314;2022-07-01T00:42:04;22.60;67.30
20911;DHT22;10615;42.702;23.314;2022-07-01T00:43:04;22.70;67.30
20911;DHT22;10615;42.702;23.314;2022-07-01T00:44:05;22.70;67.40
20911;DHT22;10615;42.702;23.314;2022-07-01T00:45:08;22.70;67.40
20911;DHT22;10615;42.702;23.314;2022-07-01T00:46:10;22.70;67.30
20911;DHT22;10615;42.702;23.314;2022-07-01T00:47:13;22.70;67.40
20911;DHT22;10615;42.702;23.314;2022-07-01T00:48:14;22.70;67.40
20911;DHT22;10615;42.702;23.314;2022-07-01T00:49:15;22.70;67.50
20911;DHT22;10615;42.702;23.314;2022-07-01T00:50:16;22.80;67.50
20911;DHT22;10615;42.702;23.314;2022-07-01T00:51:20;22.80;67.50
20911;DHT22;10615;42.702;23.314;2022-07-01T00:52:21;22.70;67.50
20911;DHT22;10615;42.702;23.314;2022-07-01T00:53:22;22.70;67.70
20911;DHT22;10615;42.702;23.314;2022-07-01T00:54:23;22.70;67.80
20911;DHT22;10615;42.702;23.314;2022-07-01T00:55:24;22.70;68.00
20911;DHT22;10615;42.702;23.314;2022-07-01T00:56:24;22.70;68.10
20911;DHT22;10615;42.702;23.314;2022-07-01T00:57:30;22.70;68.30
20911;DHT22;10615;42.702;23.314;2022-07-01T00:58:31;22.70;68.50
20911;DHT22;10615;42.702;23.314;2022-07-01T00:59:32;22.70;68.70
20911;DHT22;10615;42.702;23.314;2022-07-01T01:00:36;22.70;68.90
20911;DHT22;10615;42.702;23.314;2022-07-01T01:01:39;22.70;69.20
20911;DHT22;10615;42.702;23.314;2022-07-01T01:02:40;22.60;69.40
20911;DHT22;10615;42.702;23.314;2022-07-01T01:03:40;22.60;69.70
20911;DHT22;10615;42.702;23.314;2022-07-01T01:04:41;22.60;70.70
20911;DHT22;10615;42.702;23.314;2022-07-01T01:05:42;22.60;70.00
20911;DHT22;10615;42.702;23.314;2022-07-01T01:06:43;22.50;70.00
20911;DHT22;10615;42.702;23.314;2022-07-01T01:07:43;22.60;70.20
20911;DHT22;10615;42.702;23.314;2022-07-01T01:08:45;22.60;70.30
20911;DHT22;10615;42.702;23.314;2022-07-01T01:09:46;22.60;70.40
20911;DHT22;10615;42.702;23.314;2022-07-01T01:10:47;22.60;70.50
20911;DHT22;10615;42.702;23.314;2022-07-01T01:11:48;22.50;70.60
20911;DHT22;10615;42.702;23.314;2022-07-01T01:12:50;22.50;70.80
20911;DHT22;10615;42.702;23.314;2022-07-01T01:13:51;22.50;70.90
20911;DHT22;10615;42.702;23.314;2022-07-01T01:14:52;22.50;70.90
20911;DHT22;10615;42.702;23.314;2022-07-01T01:15:53;22.40;71.00
20911;DHT22;10615;42.702;23.314;2022-07-01T01:16:53;22.40;71.20
20911;DHT22;10615;42.702;23.314;2022-07-01T01:17:54;22.40;71.30
20911;DHT22;10615;42.702;23.314;2022-07-01T01:18:55;22.40;71.30
20911;DHT22;10615;42.702;23.314;2022-07-01T01:19:56;22.40;71.30
20911;DHT22;10615;42.702;23.314;2022-07-01T01:20:57;22.40;71.10
20911;DHT22;10615;42.702;23.314;2022-07-01T01:21:57;22.30;71.00
20911;DHT22;10615;42.702;23.314;2022-07-01T01:22:59;22.30;71.10
20911;DHT22;10615;42.702;23.314;2022-07-01T01:24:00;22.40;71.20
20911;DHT22;10615;42.702;23.314;2022-07-01T01:25:01;22.40;71.40
20911;DHT22;10615;42.702;23.314;2022-07-01T01:26:14;22.40;71.50
20911;DHT22;10615;42.702;23.314;2022-07-01T01:27:16;22.40;71.60
20911;DHT22;10615;42.702;23.314;2022-07-01T01:28:17;22.40;71.60
20911;DHT22;10615;42.702;23.314;2022-07-01T01:29:18;22.40;71.70
20911;DHT22;10615;42.702;23.314;2022-07-01T01:30:18;22.40;71.70
20911;DHT22;10615;42.702;23.314;2022-07-01T01:31:28;22.50;71.90
20911;DHT22;10615;42.702;23.314;2022-07-01T01:32:34;22.40;72.00
20911;DHT22;10615;42.702;23.314;2022-07-01T01:33:35;22.40;72.10
20911;DHT22;10615;42.702;23.314;2022-07-01T01:34:37;22.30;72.10
20911;DHT22;10615;42.702;23.314;2022-07-01T01:35:38;22.40;72.30
20911;DHT22;10615;42.702;23.314;2022-07-01T01:36:41;22.40;72.40
20911;DHT22;10615;42.702;23.314;2022-07-01T01:37:42;22.40;72.60
20911;DHT22;10615;42.702;23.314;2022-07-01T01:38:43;22.30;72.60
20911;DHT22;10615;42.702;23.314;2022-07-01T01:39:44;22.40;72.70
20911;DHT22;10615;42.702;23.314;2022-07-01T01:40:45;22.30;72.80
20911;DHT22;10615;42.702;23.314;2022-07-01T01:41:46;22.30;73.00
20911;DHT22;10615;42.702;23.314;2022-07-01T01:42:47;22.30;73.30
20911;DHT22;10615;42.702;23.314;2022-07-01T01:43:48;22.30;73.30
20911;DHT22;10615;42.702;23.314;2022-07-01T01:44:48;22.30;73.50
20911;DHT22;10615;42.702;23.314;2022-07-01T01:45:49;22.30;73.60
20911;DHT22;10615;42.702;23.314;2022-07-01T01:46:50;22.20;73.80
20911;DHT22;10615;42.702;23.314;2022-07-01T01:47:50;22.20;74.10
20911;DHT22;10615;42.702;23.314;2022-07-01T01:48:51;22.20;74.20
20911;DHT22;10615;42.702;23.314;2022-07-01T01:49:52;22.10;74.40
20911;DHT22;10615;42.702;23.314;2022-07-01T01:50:53;22.10;74.60
20911;DHT22;10615;42.702;23.314;2022-07-01T01:51:54;22.10;74.70
20911;DHT22;10615;42.702;23.314;2022-07-01T01:52:56;22.10;74.80
20911;DHT22;10615;42.702;23.314;2022-07-01T01:53:58;22.10;75.00
20911;DHT22;10615;42.702;23.314;2022-07-01T01:55:00;22.00;75.00
20911;DHT22;10615;42.702;23.314;2022-07-01T01:56:00;22.00;75.20
20911;DHT22;10615;42.702;23.314;2022-07-01T01:57:01;22.00;75.20
20911;DHT22;10615;42.702;23.314;2022-07-01T01:58:02;22.00;75.40
20911;DHT22;10615;42.702;23.314;2022-07-01T01:59:03;22.00;75.50
20911;DHT22;10615;42.702;23.314;2022-07-01T02:00:06;21.90;75.70
20911;DHT22;10615;42.702;23.314;2022-07-01T02:01:12;21.90;76.00
20911;DHT22;10615;42.702;23.314;2022-07-01T02:02:13;21.90;76.00
20911;DHT22;10615;42.702;23.314;2022-07-01T02:03:14;21.80;76.20
20911;DHT22;10615;42.702;23.314;2022-07-01T02:04:14;21.80;76.40
20911;DHT22;10615;42.702;23.314;2022-07-01T02:05:16;21.80;76.50
20911;DHT22;10615;42.702;23.314;2022-07-01T02:06:18;21.80;76.70
20911;DHT22;10615;42.702;23.314;2022-07-01T02:07:18;21.80;76.90
20911;DHT22;10615;42.702;23.314;2022-07-01T02:08:19;21.80;76.90
20911;DHT22;10615;42.702;23.314;2022-07-01T02:09:20;21.80;76.90
20911;DHT22;10615;42.702;23.314;2022-07-01T02:10:21;21.80;77.00
20911;DHT22;10615;42.702;23.314;2022-07-01T02:11:21;21.80;77.20
20911;DHT22;10615;42.702;23.314;2022-07-01T02:12:22;21.80;77.20
20911;DHT22;10615;42.702;23.314;2022-07-01T02:13:23;21.80;77.30
20911;DHT22;10615;42.702;23.314;2022-07-01T02:14:24;21.80;77.40
20911;DHT22;10615;42.702;23.314;2022-07-01T02:15:24;21.70;77.50
20911;DHT22;10615;42.702;23.314;2022-07-01T02:16:25;21.70;77.70
20911;DHT22;10615;42.702;23.314;2022-07-01T02:17:26;21.70;77.90
20911;DHT22;10615;42.702;23.314;2022-07-01T02:18:27;21.70;78.00
20911;DHT22;10615;42.702;23.314;2022-07-01T02:19:28;21.70;77.90
20911;DHT22;10615;42.702;23.314;2022-07-01T02:20:28;21.70;78.00
20911;DHT22;10615;42.702;23.314;2022-07-01T02:21:29;21.70;77.90
20911;DHT22;10615;42.702;23.314;2022-07-01T02:22:30;21.70;78.00
20911;DHT22;10615;42.702;23.314;2022-07-01T02:23:31;21.70;78.20
20911;DHT22;10615;42.702;23.314;2022-07-01T02:24:31;21.70;78.30
20911;DHT22;10615;42.702;23.314;2022-07-01T02:25:32;21.70;78.50
20911;DHT22;10615;42.702;23.314;2022-07-01T02:26:33;21.70;78.60
20911;DHT22;10615;42.702;23.314;2022-07-01T02:27:33;21.70;78.60
20911;DHT22;10615;42.702;23.314;2022-07-01T02:28:34;21.70;78.60
20911;DHT22;10615;42.702;23.314;2022-07-01T02:29:35;21.70;78.80
20911;DHT22;10615;42.702;23.314;2022-07-01T02:30:35;21.70;78.90
20911;DHT22;10615;42.702;23.314;2022-07-01T02:31:36;21.60;78.90
20911;DHT22;10615;42.702;23.314;2022-07-01T02:32:37;21.60;78.90
20911;DHT22;10615;42.702;23.314;2022-07-01T02:33:38;21.60;79.10
20911;DHT22;10615;42.702;23.314;2022-07-01T02:34:38;21.60;79.20
20911;DHT22;10615;42.702;23.314;2022-07-01T02:35:40;21.60;79.30
20911;DHT22;10615;42.702;23.314;2022-07-01T02:36:41;21.60;79.40
20911;DHT22;10615;42.702;23.314;2022-07-01T02:37:42;21.60;79.40
20911;DHT22;10615;42.702;23.314;2022-07-01T02:38:42;21.60;79.50
20911;DHT22;10615;42.702;23.314;2022-07-01T02:39:43;21.60;79.60
20911;DHT22;10615;42.702;23.314;2022-07-01T02:40:44;21.60;79.60
20911;DHT22;10615;42.702;23.314;2022-07-01T02:41:44;21.60;79.70
20911;DHT22;10615;42.702;23.314;2022-07-01T02:43:04;21.60;79.90
20911;DHT22;10615;42.702;23.314;2022-07-01T02:44:05;21.60;79.80
20911;DHT22;10615;42.702;23.314;2022-07-01T02:45:07;21.60;79.90
20911;DHT22;10615;42.702;23.314;2022-07-01T02:46:08;21.60;80.00
20911;DHT22;10615;42.702;23.314;2022-07-01T02:47:09;21.60;80.10
20911;DHT22;10615;42.702;23.314;2022-07-01T02:48:10;21.60;80.20
20911;DHT22;10615;42.702;23.314;2022-07-01T02:49:10;21.50;80.20
20911;DHT22;10615;42.702;23.314;2022-07-01T02:50:12;21.50;80.40
20911;DHT22;10615;42.702;23.314;2022-07-01T02:51:13;21.50;80.50
20911;DHT22;10615;42.702;23.314;2022-07-01T02:52:14;21.50;80.50
20911;DHT22;10615;42.702;23.314;2022-07-01T02:53:16;21.50;80.70
20911;DHT22;10615;42.702;23.314;2022-07-01T02:54:16;21.50;80.80
20911;DHT22;10615;42.702;23.314;2022-07-01T02:56:37;21.50;81.10
20911;DHT22;10615;42.702;23.314;2022-07-01T02:57:41;21.50;81.10
20911;DHT22;10615;42.702;23.314;2022-07-01T02:58:42;21.50;81.90
20911;DHT22;10615;42.702;23.314;2022-07-01T02:59:43;21.50;81.00
20911;DHT22;10615;42.702;23.314;2022-07-01T03:00:44;21.50;80.90
20911;DHT22;10615;42.702;23.314;2022-07-01T03:01:45;21.50;80.80
20911;DHT22;10615;42.702;23.314;2022-07-01T03:02:45;21.50;80.80
20911;DHT22;10615;42.702;23.314;2022-07-01T03:03:46;21.50;80.70
20911;DHT22;10615;42.702;23.314;2022-07-01T03:04:48;21.50;80.60
20911;DHT22;10615;42.702;23.314;2022-07-01T03:05:49;21.50;80.50
20911;DHT22;10615;42.702;23.314;2022-07-01T03:06:50;21.50;80.50
20911;DHT22;10615;42.702;23.314;2022-07-01T03:07:51;21.50;80.50
20911;DHT22;10615;42.702;23.314;2022-07-01T03:08:52;21.50;80.60
20911;DHT22;10615;42.702;23.314;2022-07-01T03:09:52;21.50;80.70
20911;DHT22;10615;42.702;23.314;2022-07-01T03:10:53;21.50;80.60
20911;DHT22;10615;42.702;23.314;2022-07-01T03:11:54;21.50;80.70
20911;DHT22;10615;42.702;23.314;2022-07-01T03:12:54;21.50;80.50
20911;DHT22;10615;42.702;23.314;2022-07-01T03:13:56;21.60;80.70
20911;DHT22;10615;42.702;23.314;2022-07-01T03:15:08;21.60;80.60
20911;DHT22;10615;42.702;23.314;2022-07-01T03:16:10;21.70;80.60
20911;DHT22;10615;42.702;23.314;2022-07-01T03:17:11;21.70;80.30
20911;DHT22;10615;42.702;23.314;2022-07-01T03:18:11;21.80;80.10
20911;DHT22;10615;42.702;23.314;2022-07-01T03:19:13;21.80;79.90
20911;DHT22;10615;42.702;23.314;2022-07-01T03:20:16;21.90;80.70
20911;DHT22;10615;42.702;23.314;2022-07-01T03:21:17;21.90;79.60
20911;DHT22;10615;42.702;23.314;2022-07-01T03:22:18;22.00;79.40
20911;DHT22;10615;42.702;23.314;2022-07-01T03:23:19;22.10;79.10
20911;DHT22;10615;42.702;23.314;2022-07-01T03:24:20;22.10;79.70
20911;DHT22;10615;42.702;23.314;2022-07-01T03:25:21;22.20;78.50
20911;DHT22;10615;42.702;23.314;2022-07-01T03:26:21;22.30;78.20
20911;DHT22;10615;42.702;23.314;2022-07-01T03:27:23;22.40;77.90
20911;DHT22;10615;42.702;23.314;2022-07-01T03:28:24;22.50;77.70
20911;DHT22;10615;42.702;23.314;2022-07-01T03:29:24;22.50;77.30
20911;DHT22;10615;42.702;23.314;2022-07-01T03:30:25;22.60;77.20
20911;DHT22;10615;42.702;23.314;2022-07-01T03:31:26;22.70;77.00
20911;DHT22;10615;42.702;23.314;2022-07-01T03:32:26;22.80;76.80
20911;DHT22;10615;42.702;23.314;2022-07-01T03:33:27;22.80;76.40
20911;DHT22;10615;42.702;23.314;2022-07-01T03:34:28;22.90;76.10
20911;DHT22;10615;42.702;23.314;2022-07-01T03:35:29;23.00;75.70
20911;DHT22;10615;42.702;23.314;2022-07-01T03:36:35;23.10;75.50
20911;DHT22;10615;42.702;23.314;2022-07-01T03:37:36;23.20;75.30
20911;DHT22;10615;42.702;23.314;2022-07-01T03:38:37;23.30;75.00
20911;DHT22;10615;42.702;23.314;2022-07-01T03:39:39;23.40;74.70
20911;DHT22;10615;42.702;23.314;2022-07-01T03:40:40;23.50;74.20
20911;DHT22;10615;42.702;23.314;2022-07-01T03:41:40;23.60;73.70
20911;DHT22;10615;42.702;23.314;2022-07-01T03:42:41;23.70;73.40
20911;DHT22;10615;42.702;23.314;2022-07-01T03:43:42;23.80;72.90
20911;DHT22;10615;42.702;23.314;2022-07-01T03:44:42;23.90;72.70
20911;DHT22;10615;42.702;23.314;2022-07-01T03:45:44;24.10;72.30
20911;DHT22;10615;42.702;23.314;2022-07-01T03:46:45;24.20;71.70
20911;DHT22;10615;42.702;23.314;2022-07-01T03:47:50;24.30;71.30
20911;DHT22;10615;42.702;23.314;2022-07-01T03:48:51;24.50;70.60
20911;DHT22;10615;42.702;23.314;2022-07-01T03:49:52;24.60;70.00
20911;DHT22;10615;42.702;23.314;2022-07-01T03:50:53;24.70;69.50
20911;DHT22;10615;42.702;23.314;2022-07-01T03:51:54;24.80;68.90
20911;DHT22;10615;42.702;23.314;2022-07-01T03:52:54;24.90;68.40
20911;DHT22;10615;42.702;23.314;2022-07-01T03:54:14;25.00;68.00
20911;DHT22;10615;42.702;23.314;2022-07-01T03:55:33;25.10;67.60
20911;DHT22;10615;42.702;23.314;2022-07-01T03:56:33;25.30;67.20
20911;DHT22;10615;42.702;23.314;2022-07-01T03:57:34;25.50;66.70
20911;DHT22;10615;42.702;23.314;2022-07-01T03:58:35;25.60;66.10
20911;DHT22;10615;42.702;23.314;2022-07-01T03:59:38;25.80;65.80
20911;DHT22;10615;42.702;23.314;2022-07-01T04:00:39;25.90;65.20
20911;DHT22;10615;42.702;23.314;2022-07-01T04:01:40;26.00;64.70
20911;DHT22;10615;42.702;23.314;2022-07-01T04:02:41;26.10;64.00
20911;DHT22;10615;42.702;23.314;2022-07-01T04:03:41;26.20;63.60
20911;DHT22;10615;42.702;23.314;2022-07-01T04:04:42;26.40;63.20
20911;DHT22;10615;42.702;23.314;2022-07-01T04:05:43;26.60;62.70
20911;DHT22;10615;42.702;23.314;2022-07-01T04:06:44;26.70;62.80
20911;DHT22;10615;42.702;23.314;2022-07-01T04:07:45;26.90;61.50
20911;DHT22;10615;42.702;23.314;2022-07-01T04:08:47;27.00;60.90
20911;DHT22;10615;42.702;23.314;2022-07-01T04:09:48;27.10;60.50
20911;DHT22;10615;42.702;23.314;2022-07-01T04:10:49;27.30;60.00
20911;DHT22;10615;42.702;23.314;2022-07-01T04:11:54;27.40;59.20
20911;DHT22;10615;42.702;23.314;2022-07-01T04:12:55;27.60;59.00
20911;DHT22;10615;42.702;23.314;2022-07-01T04:13:55;27.80;58.70
20911;DHT22;10615;42.702;23.314;2022-07-01T04:14:56;27.90;58.30
20911;DHT22;10615;42.702;23.314;2022-07-01T04:15:58;28.20;58.00
20911;DHT22;10615;42.702;23.314;2022-07-01T04:16:59;28.40;57.70
20911;DHT22;10615;42.702;23.314;2022-07-01T04:18:00;28.70;57.10
20911;DHT22;10615;42.702;23.314;2022-07-01T04:19:01;28.90;56.60
20911;DHT22;10615;42.702;23.314;2022-07-01T04:20:02;29.10;56.00
20911;DHT22;10615;42.702;23.314;2022-07-01T04:21:02;29.30;55.60
20911;DHT22;10615;42.702;23.314;2022-07-01T04:22:22;29.50;55.20
20911;DHT22;10615;42.702;23.314;2022-07-01T04:23:36;29.80;54.70
20911;DHT22;10615;42.702;23.314;2022-07-01T04:24:36;30.00;54.00
20911;DHT22;10615;42.702;23.314;2022-07-01T04:25:37;30.20;53.50
20911;DHT22;10615;42.702;23.314;2022-07-01T04:26:38;30.50;52.90
20911;DHT22;10615;42.702;23.314;2022-07-01T04:27:39;30.80;52.40
20911;DHT22;10615;42.702;23.314;2022-07-01T04:28:39;31.10;51.70
20911;DHT22;10615;42.702;23.314;2022-07-01T04:29:40;31.30;51.20
20911;DHT22;10615;42.702;23.314;2022-07-01T04:30:41;31.60;50.60
20911;DHT22;10615;42.702;23.314;2022-07-01T04:31:41;31.80;50.10
20911;DHT22;10615;42.702;23.314;2022-07-01T04:32:42;31.90;49.50
20911;DHT22;10615;42.702;23.314;2022-07-01T04:33:43;32.10;49.20
20911;DHT22;10615;42.702;23.314;2022-07-01T04:34:44;32.30;48.90
20911;DHT22;10615;42.702;23.314;2022-07-01T04:35:44;32.70;48.50
20911;DHT22;10615;42.702;23.314;2022-07-01T04:36:45;32.90;47.80
20911;DHT22;10615;42.702;23.314;2022-07-01T04:37:46;33.20;47.30
20911;DHT22;10615;42.702;23.314;2022-07-01T04:38:46;33.40;46.80
20911;DHT22;10615;42.702;23.314;2022-07-01T04:39:47;33.50;46.20
20911;DHT22;10615;42.702;23.314;2022-07-01T04:42:07;33.80;44.80
20911;DHT22;10615;42.702;23.314;2022-07-01T04:43:08;34.10;45.20
20911;DHT22;10615;42.702;23.314;2022-07-01T04:44:09;34.40;44.60
20911;DHT22;10615;42.702;23.314;2022-07-01T04:45:10;34.50;44.00
20911;DHT22;10615;42.702;23.314;2022-07-01T04:46:10;34.60;43.70
20911;DHT22;10615;42.702;23.314;2022-07-01T04:47:11;34.70;43.30
20911;DHT22;10615;42.702;23.314;2022-07-01T04:48:12;34.80;42.90
20911;DHT22;10615;42.702;23.314;2022-07-01T04:49:14;35.00;42.60
20911;DHT22;10615;42.702;23.314;2022-07-01T04:50:15;35.10;42.10
20911;DHT22;10615;42.702;23.314;2022-07-01T04:51:16;35.10;42.00
20911;DHT22;10615;42.702;23.314;2022-07-01T04:52:17;35.20;41.80
20911;DHT22;10615;42.702;23.314;2022-07-01T04:53:17;35.30;41.50
20911;DHT22;10615;42.702;23.314;2022-07-01T04:54:18;35.40;42.10
20911;DHT22;10615;42.702;23.314;2022-07-01T04:55:19;35.40;41.20
20911;DHT22;10615;42.702;23.314;2022-07-01T04:56:20;35.50;41.20
20911;DHT22;10615;42.702;23.314;2022-07-01T04:57:21;35.50;40.90
20911;DHT22;10615;42.702;23.314;2022-07-01T04:58:22;35.60;40.80
20911;DHT22;10615;42.702;23.314;2022-07-01T04:59:22;35.80;40.70
20911;DHT22;10615;42.702;23.314;2022-07-01T05:00:23;36.00;40.50
20911;DHT22;10615;42.702;23.314;2022-07-01T05:01:24;36.20;40.10
20911;DHT22;10615;42.702;23.314;2022-07-01T05:02:25;36.30;39.70
20911;DHT22;10615;42.702;23.314;2022-07-01T05:03:25;36.60;39.60
20911;DHT22;10615;42.702;23.314;2022-07-01T05:04:26;36.90;39.20
20911;DHT22;10615;42.702;23.314;2022-07-01T05:05:28;37.10;38.60
20911;DHT22;10615;42.702;23.314;2022-07-01T05:06:29;37.50;38.40
20911;DHT22;10615;42.702;23.314;2022-07-01T05:07:30;37.90;37.90
20911;DHT22;10615;42.702;23.314;2022-07-01T05:08:31;38.30;37.30
20911;DHT22;10615;42.702;23.314;2022-07-01T05:09:32;38.60;36.70
20911;DHT22;10615;42.702;23.314;2022-07-01T05:10:33;38.90;36.20
20911;DHT22;10615;42.702;23.314;2022-07-01T05:11:33;39.20;35.60
20911;DHT22;10615;42.702;23.314;2022-07-01T05:12:34;39.60;35.20
20911;DHT22;10615;42.702;23.314;2022-07-01T05:13:35;40.00;34.70
20911;DHT22;10615;42.702;23.314;2022-07-01T05:14:36;40.20;34.10
20911;DHT22;10615;42.702;23.314;2022-07-01T05:15:36;40.60;33.90
20911;DHT22;10615;42.702;23.314;2022-07-01T05:16:37;41.00;33.30
20911;DHT22;10615;42.702;23.314;2022-07-01T05:17:38;41.30;32.90
20911;DHT22;10615;42.702;23.314;2022-07-01T05:18:57;41.70;32.30
20911;DHT22;10615;42.702;23.314;2022-07-01T05:20:16;42.40;31.90
20911;DHT22;10615;42.702;23.314;2022-07-01T05:21:35;42.70;31.20
20911;DHT22;10615;42.702;23.314;2022-07-01T05:22:54;43.10;30.70
20911;DHT22;10615;42.702;23.314;2022-07-01T05:23:55;43.70;30.30
20911;DHT22;10615;42.702;23.314;2022-07-01T05:24:56;44.10;29.70
20911;DHT22;10615;42.702;23.314;2022-07-01T05:25:56;44.40;29.30
20911;DHT22;10615;42.702;23.314;2022-07-01T05:27:59;44.90;28.20
20911;DHT22;10615;42.702;23.314;2022-07-01T05:28:59;45.30;28.40
20911;DHT22;10615;42.702;23.314;2022-07-01T05:30:00;45.60;28.00
20911;DHT22;10615;42.702;23.314;2022-07-01T05:31:01;45.80;27.60
20911;DHT22;10615;42.702;23.314;2022-07-01T05:32:02;46.00;27.40
20911;DHT22;10615;42.702;23.314;2022-07-01T05:33:02;46.10;27.30
20911;DHT22;10615;42.702;23.314;2022-07-01T05:34:03;46.50;27.10
20911;DHT22;10615;42.702;23.314;2022-07-01T05:35:04;46.80;26.80
20911;DHT22;10615;42.702;23.314;2022-07-01T05:36:24;47.00;26.50
20911;DHT22;10615;42.702;23.314;2022-07-01T05:37:24;47.40;26.10
20911;DHT22;10615;42.702;23.314;2022-07-01T05:38:25;47.60;26.10
20911;DHT22;10615;42.702;23.314;2022-07-01T05:39:26;47.80;25.70
20911;DHT22;10615;42.702;23.314;2022-07-01T05:40:26;48.00;25.40
20911;DHT22;10615;42.702;23.314;2022-07-01T05:41:27;48.20;25.10
20911;DHT22;10615;42.702;23.314;2022-07-01T05:42:29;48.20;25.00
20911;DHT22;10615;42.702;23.314;2022-07-01T05:43:29;48.40;24.90
20911;DHT22;10615;42.702;23.314;2022-07-01T05:44:30;48.50;24.70
20911;DHT22;10615;42.702;23.314;2022-07-01T05:45:31;48.60;24.50
20911;DHT22;10615;42.702;23.314;2022-07-01T05:46:32;48.80;24.30
20911;DHT22;10615;42.702;23.314;2022-07-01T05:47:33;48.80;24.10
20911;DHT22;10615;42.702;23.314;2022-07-01T05:48:33;48.90;24.10
20911;DHT22;10615;42.702;23.314;2022-07-01T05:49:34;49.00;24.00
20911;DHT22;10615;42.702;23.314;2022-07-01T05:50:35;49.00;24.00
20911;DHT22;10615;42.702;23.314;2022-07-01T05:51:35;49.10;24.10
20911;DHT22;10615;42.702;23.314;2022-07-01T05:52:36;49.50;24.00
20911;DHT22;10615;42.702;23.314;2022-07-01T05:54:38;49.80;23.10
20911;DHT22;10615;42.702;23.314;2022-07-01T05:55:39;50.20;23.40
20911;DHT22;10615;42.702;23.314;2022-07-01T05:56:40;50.40;23.00
20911;DHT22;10615;42.702;23.314;2022-07-01T05:57:40;50.50;22.90
20911;DHT22;10615;42.702;23.314;2022-07-01T05:58:41;50.70;22.80
20911;DHT22;10615;42.702;23.314;2022-07-01T05:59:42;50.60;22.70
20911;DHT22;10615;42.702;23.314;2022-07-01T06:00:43;50.70;22.70
20911;DHT22;10615;42.702;23.314;2022-07-01T06:01:44;50.80;22.60
20911;DHT22;10615;42.702;23.314;2022-07-01T06:02:46;51.10;22.50
20911;DHT22;10615;42.702;23.314;2022-07-01T06:03:47;51.10;22.20
20911;DHT22;10615;42.702;23.314;2022-07-01T06:04:47;51.30;22.10
20911;DHT22;10615;42.702;23.314;2022-07-01T06:05:48;51.30;22.10
20911;DHT22;10615;42.702;23.314;2022-07-01T06:06:49;51.40;22.10
20911;DHT22;10615;42.702;23.314;2022-07-01T06:07:49;51.50;22.00
20911;DHT22;10615;42.702;23.314;2022-07-01T06:08:50;51.50;22.00
20911;DHT22;10615;42.702;23.314;2022-07-01T06:09:51;51.50;21.90
20911;DHT22;10615;42.702;23.314;2022-07-01T06:10:52;51.70;21.80
20911;DHT22;10615;42.702;23.314;2022-07-01T06:11:52;52.20;21.70
20911;DHT22;10615;42.702;23.314;2022-07-01T06:12:53;52.40;21.40
20911;DHT22;10615;42.702;23.314;2022-07-01T06:13:54;52.20;21.30
20911;DHT22;10615;42.702;23.314;2022-07-01T06:14:54;52.40;22.00
20911;DHT22;10615;42.702;23.314;2022-07-01T06:15:55;53.00;21.30
20911;DHT22;10615;42.702;23.314;2022-07-01T06:16:58;53.30;21.00
20911;DHT22;10615;42.702;23.314;2022-07-01T06:17:59;53.70;20.80
20911;DHT22;10615;42.702;23.314;2022-07-01T06:19:00;54.00;20.60
20911;DHT22;10615;42.702;23.314;2022-07-01T06:20:01;54.10;20.40
20911;DHT22;10615;42.702;23.314;2022-07-01T06:21:02;54.00;20.30
20911;DHT22;10615;42.702;23.314;2022-07-01T06:22:02;54.20;20.20
20911;DHT22;10615;42.702;23.314;2022-07-01T06:23:03;54.50;20.10
20911;DHT22;10615;42.702;23.314;2022-07-01T06:24:04;54.60;19.90
20911;DHT22;10615;42.702;23.314;2022-07-01T06:25:05;55.00;19.90
20911;DHT22;10615;42.702;23.314;2022-07-01T06:26:06;55.20;19.60
20911;DHT22;10615;42.702;23.314;2022-07-01T06:27:06;55.20;19.40